sensor_id;sensor_type;location;lat;lon;timestamp;P1;durP1;ratioP1;P2;durP2;ratioP2
68353;SDS011;55274;43.060;25.618;2022-08-03T00:01:51;3.80;;;2.55;;
68353;SDS011;55274;43.060;25.618;2022-08-03T00:04:16;6.35;;;2.45;;
68353;SDS011;55274;43.060;25.618;2022-08-03T00:06:42;4.30;;;1.80;;
68353;SDS011;55274;43.060;25.618;2022-08-03T00:09:08;3.90;;;1.60;;
68353;SDS011;55274;43.060;25.618;2022-08-03T00:11:35;2.85;;;1.80;;
68353;SDS011;55274;43.060;25.618;2022-08-03T00:14:01;7.22;;;2.10;;
68353;SDS011;55274;43.060;25.618;2022-08-03T00:16:27;4.03;;;2.35;;
68353;SDS011;55274;43.060;25.618;2022-08-03T00:18:53;2.47;;;1.75;;
68353;SDS011;55274;43.060;25.618;2022-08-03T00:21:19;4.82;;;2.20;;
68353;SDS011;55274;43.060;25.618;2022-08-03T00:23:44;2.47;;;1.65;;
68353;SDS011;55274;43.060;25.618;2022-08-03T00:26:10;4.50;;;1.90;;
68353;SDS011;55274;43.060;25.618;2022-08-03T00:28:36;2.83;;;1.95;;
68353;SDS011;55274;43.060;25.618;2022-08-03T00:31:02;3.78;;;1.80;;
68353;SDS011;55274;43.060;25.618;2022-08-03T00:33:27;2.70;;;2.05;;
68353;SDS011;55274;43.060;25.618;2022-08-03T00:35:53;2.20;;;1.60;;
68353;SDS011;55274;43.060;25.618;2022-08-03T00:38:19;3.55;;;2.00;;
68353;SDS011;55274;43.060;25.618;2022-08-03T00:40:45;6.05;;;2.55;;
68353;SDS011;55274;43.060;25.618;2022-08-03T00:43:11;3.00;;;1.92;;
68353;SDS011;55274;43.060;25.618;2022-08-03T00:45:38;4.60;;;2.58;;
68353;SDS011;55274;43.060;25.618;2022-08-03T00:48:05;3.00;;;2.05;;
68353;SDS011;55274;43.060;25.618;2022-08-03T00:50:35;3.47;;;2.15;;
68353;SDS011;55274;43.060;25.618;2022-08-03T00:53:04;4.18;;;2.28;;
68353;SDS011;55274;43.060;25.618;2022-08-03T00:55:31;4.57;;;1.92;;
68353;SDS011;55274;43.060;25.618;2022-08-03T00:57:57;6.43;;;2.38;;
68353;SDS011;55274;43.060;25.618;2022-08-03T01:00:26;7.75;;;2.20;;
68353;SDS011;55274;43.060;25.618;2022-08-03T01:02:52;6.97;;;2.42;;
68353;SDS011;55274;43.060;25.618;2022-08-03T01:05:19;5.68;;;2.40;;
68353;SDS011;55274;43.060;25.618;2022-08-03T01:18:46;12.35;;;4.70;;
68353;SDS011;55274;43.060;25.618;2022-08-03T01:21:17;7.80;;;3.13;;
68353;SDS011;55274;43.060;25.618;2022-08-03T01:27:17;8.55;;;2.20;;
68353;SDS011;55274;43.060;25.618;2022-08-03T01:29:58;8.48;;;2.50;;
68353;SDS011;55274;43.060;25.618;2022-08-03T01:32:34;4.10;;;2.30;;
68353;SDS011;55274;43.060;25.618;2022-08-03T01:35:25;4.85;;;2.60;;
68353;SDS011;55274;43.060;25.618;2022-08-03T01:38:00;5.05;;;2.63;;
68353;SDS011;55274;43.060;25.618;2022-08-03T01:40:30;3.28;;;2.25;;
68353;SDS011;55274;43.060;25.618;2022-08-03T01:42:58;4.97;;;2.00;;
68353;SDS011;55274;43.060;25.618;2022-08-03T01:45:27;4.60;;;2.50;;
68353;SDS011;55274;43.060;25.618;2022-08-03T01:47:54;4.40;;;2.33;;
68353;SDS011;55274;43.060;25.618;2022-08-03T01:50:22;4.03;;;2.03;;
68353;SDS011;55274;43.060;25.618;2022-08-03T01:52:53;4.25;;;2.20;;
68353;SDS011;55274;43.060;25.618;2022-08-03T01:55:20;3.72;;;2.20;;
68353;SDS011;55274;43.060;25.618;2022-08-03T01:57:47;6.00;;;2.83;;
68353;SDS011;55274;43.060;25.618;2022-08-03T02:00:15;3.97;;;1.95;;
68353;SDS011;55274;43.060;25.618;2022-08-03T02:02:42;5.45;;;2.55;;
68353;SDS011;55274;43.060;25.618;2022-08-03T02:05:10;5.88;;;2.00;;
68353;SDS011;55274;43.060;25.618;2022-08-03T02:07:39;4.95;;;1.92;;
68353;SDS011;55274;43.060;25.618;2022-08-03T02:10:06;4.28;;;2.03;;
68353;SDS011;55274;43.060;25.618;2022-08-03T02:12:34;3.65;;;2.10;;
68353;SDS011;55274;43.060;25.618;2022-08-03T02:15:02;5.50;;;2.22;;
68353;SDS011;55274;43.060;25.618;2022-08-03T02:17:29;3.25;;;2.15;;
68353;SDS011;55274;43.060;25.618;2022-08-03T02:19:57;16.30;;;3.30;;
68353;SDS011;55274;43.060;25.618;2022-08-03T02:22:25;5.28;;;2.03;;
68353;SDS011;55274;43.060;25.618;2022-08-03T02:24:53;9.80;;;2.45;;
68353;SDS011;55274;43.060;25.618;2022-08-03T02:27:21;4.63;;;2.10;;
68353;SDS011;55274;43.060;25.618;2022-08-03T02:29:50;7.20;;;2.42;;
68353;SDS011;55274;43.060;25.618;2022-08-03T02:32:23;13.38;;;3.17;;
68353;SDS011;55274;43.060;25.618;2022-08-03T02:34:56;6.25;;;2.20;;
68353;SDS011;55274;43.060;25.618;2022-08-03T02:37:24;10.18;;;2.80;;
68353;SDS011;55274;43.060;25.618;2022-08-03T02:39:57;12.57;;;2.47;;
68353;SDS011;55274;43.060;25.618;2022-08-03T02:42:26;6.47;;;2.70;;
68353;SDS011;55274;43.060;25.618;2022-08-03T02:44:54;9.52;;;2.60;;
68353;SDS011;55274;43.060;25.618;2022-08-03T02:47:22;22.05;;;3.95;;
68353;SDS011;55274;43.060;25.618;2022-08-03T02:49:51;8.25;;;2.55;;
68353;SDS011;55274;43.060;25.618;2022-08-03T02:52:20;5.82;;;2.22;;
68353;SDS011;55274;43.060;25.618;2022-08-03T02:54:48;3.08;;;2.03;;
68353;SDS011;55274;43.060;25.618;2022-08-03T02:57:17;10.13;;;2.25;;
68353;SDS011;55274;43.060;25.618;2022-08-03T02:59:45;9.55;;;3.17;;
68353;SDS011;55274;43.060;25.618;2022-08-03T03:02:11;13.10;;;2.65;;
68353;SDS011;55274;43.060;25.618;2022-08-03T03:04:40;14.52;;;3.00;;
68353;SDS011;55274;43.060;25.618;2022-08-03T03:07:07;8.10;;;2.78;;
68353;SDS011;55274;43.060;25.618;2022-08-03T03:09:35;6.55;;;3.30;;
68353;SDS011;55274;43.060;25.618;2022-08-03T03:12:01;5.07;;;2.05;;
68353;SDS011;55274;43.060;25.618;2022-08-03T03:14:28;6.25;;;2.53;;
68353;SDS011;55274;43.060;25.618;2022-08-03T03:16:55;33.58;;;3.58;;
68353;SDS011;55274;43.060;25.618;2022-08-03T03:19:21;10.45;;;2.40;;
68353;SDS011;55274;43.060;25.618;2022-08-03T03:21:48;2.63;;;2.05;;
68353;SDS011;55274;43.060;25.618;2022-08-03T03:24:15;3.30;;;2.22;;
68353;SDS011;55274;43.060;25.618;2022-08-03T03:26:42;6.00;;;2.30;;
68353;SDS011;55274;43.060;25.618;2022-08-03T03:29:08;2.60;;;2.10;;
68353;SDS011;55274;43.060;25.618;2022-08-03T03:31:34;3.47;;;2.00;;
68353;SDS011;55274;43.060;25.618;2022-08-03T03:34:01;8.27;;;2.05;;
68353;SDS011;55274;43.060;25.618;2022-08-03T03:36:27;6.15;;;2.80;;
68353;SDS011;55274;43.060;25.618;2022-08-03T03:38:53;10.00;;;2.33;;
68353;SDS011;55274;43.060;25.618;2022-08-03T03:41:18;6.00;;;2.33;;
68353;SDS011;55274;43.060;25.618;2022-08-03T03:43:44;8.07;;;2.40;;
68353;SDS011;55274;43.060;25.618;2022-08-03T03:46:13;9.32;;;3.15;;
68353;SDS011;55274;43.060;25.618;2022-08-03T03:48:39;11.15;;;2.33;;
68353;SDS011;55274;43.060;25.618;2022-08-03T03:51:05;4.97;;;2.53;;
68353;SDS011;55274;43.060;25.618;2022-08-03T03:53:31;7.22;;;2.22;;
68353;SDS011;55274;43.060;25.618;2022-08-03T03:55:57;6.35;;;2.90;;
68353;SDS011;55274;43.060;25.618;2022-08-03T03:58:23;13.05;;;2.42;;
68353;SDS011;55274;43.060;25.618;2022-08-03T04:00:49;5.82;;;2.83;;
68353;SDS011;55274;43.060;25.618;2022-08-03T04:03:15;6.55;;;2.97;;
68353;SDS011;55274;43.060;25.618;2022-08-03T04:05:41;7.20;;;3.08;;
68353;SDS011;55274;43.060;25.618;2022-08-03T04:08:26;5.57;;;2.63;;
68353;SDS011;55274;43.060;25.618;2022-08-03T04:11:12;29.38;;;4.20;;
68353;SDS011;55274;43.060;25.618;2022-08-03T04:13:56;51.35;;;6.00;;
68353;SDS011;55274;43.060;25.618;2022-08-03T04:16:28;26.38;;;4.18;;
68353;SDS011;55274;43.060;25.618;2022-08-03T04:19:04;11.70;;;3.25;;
68353;SDS011;55274;43.060;25.618;2022-08-03T04:21:34;11.60;;;3.17;;
68353;SDS011;55274;43.060;25.618;2022-08-03T04:24:05;14.70;;;4.82;;
68353;SDS011;55274;43.060;25.618;2022-08-03T04:26:35;7.40;;;2.63;;
68353;SDS011;55274;43.060;25.618;2022-08-03T04:29:04;6.65;;;2.80;;
68353;SDS011;55274;43.060;25.618;2022-08-03T04:31:31;5.57;;;2.13;;
68353;SDS011;55274;43.060;25.618;2022-08-03T04:33:57;13.02;;;4.10;;
68353;SDS011;55274;43.060;25.618;2022-08-03T04:36:25;8.43;;;2.35;;
68353;SDS011;55274;43.060;25.618;2022-08-03T04:38:55;12.43;;;3.03;;
68353;SDS011;55274;43.060;25.618;2022-08-03T04:41:31;9.07;;;2.42;;
68353;SDS011;55274;43.060;25.618;2022-08-03T04:43:59;8.00;;;2.80;;
68353;SDS011;55274;43.060;25.618;2022-08-03T04:46:27;7.60;;;2.60;;
68353;SDS011;55274;43.060;25.618;2022-08-03T04:48:56;13.52;;;2.88;;
68353;SDS011;55274;43.060;25.618;2022-08-03T04:51:23;13.60;;;3.47;;
68353;SDS011;55274;43.060;25.618;2022-08-03T04:53:50;8.85;;;2.65;;
68353;SDS011;55274;43.060;25.618;2022-08-03T04:56:16;10.63;;;2.60;;
68353;SDS011;55274;43.060;25.618;2022-08-03T04:58:41;6.47;;;2.50;;
68353;SDS011;55274;43.060;25.618;2022-08-03T05:01:07;5.43;;;2.47;;
68353;SDS011;55274;43.060;25.618;2022-08-03T05:03:33;17.45;;;3.08;;
68353;SDS011;55274;43.060;25.618;2022-08-03T05:05:59;20.63;;;3.63;;
68353;SDS011;55274;43.060;25.618;2022-08-03T05:08:25;18.10;;;2.88;;
68353;SDS011;55274;43.060;25.618;2022-08-03T05:10:51;21.92;;;3.33;;
68353;SDS011;55274;43.060;25.618;2022-08-03T05:13:17;5.38;;;2.85;;
68353;SDS011;55274;43.060;25.618;2022-08-03T05:15:43;5.75;;;3.20;;
68353;SDS011;55274;43.060;25.618;2022-08-03T05:18:08;8.98;;;4.32;;
68353;SDS011;55274;43.060;25.618;2022-08-03T05:20:34;21.15;;;7.20;;
68353;SDS011;55274;43.060;25.618;2022-08-03T05:23:00;18.88;;;10.40;;
68353;SDS011;55274;43.060;25.618;2022-08-03T05:25:28;18.70;;;9.88;;
68353;SDS011;55274;43.060;25.618;2022-08-03T05:27:54;12.80;;;3.80;;
68353;SDS011;55274;43.060;25.618;2022-08-03T05:30:20;11.65;;;3.75;;
68353;SDS011;55274;43.060;25.618;2022-08-03T05:32:46;8.60;;;3.10;;
68353;SDS011;55274;43.060;25.618;2022-08-03T05:35:12;21.40;;;4.80;;
68353;SDS011;55274;43.060;25.618;2022-08-03T05:37:38;10.45;;;4.55;;
68353;SDS011;55274;43.060;25.618;2022-08-03T05:40:03;10.27;;;2.95;;
68353;SDS011;55274;43.060;25.618;2022-08-03T05:42:30;6.05;;;2.50;;
68353;SDS011;55274;43.060;25.618;2022-08-03T05:44:56;4.50;;;2.45;;
68353;SDS011;55274;43.060;25.618;2022-08-03T05:47:22;6.18;;;2.30;;
68353;SDS011;55274;43.060;25.618;2022-08-03T05:49:47;16.92;;;2.20;;
68353;SDS011;55274;43.060;25.618;2022-08-03T05:52:13;11.93;;;4.82;;
68353;SDS011;55274;43.060;25.618;2022-08-03T05:54:39;38.08;;;8.73;;
68353;SDS011;55274;43.060;25.618;2022-08-03T05:57:05;68.07;;;9.63;;
68353;SDS011;55274;43.060;25.618;2022-08-03T05:59:31;15.73;;;4.70;;
68353;SDS011;55274;43.060;25.618;2022-08-03T06:01:56;6.43;;;3.00;;
68353;SDS011;55274;43.060;25.618;2022-08-03T06:04:22;12.00;;;3.97;;
68353;SDS011;55274;43.060;25.618;2022-08-03T06:06:49;20.95;;;5.47;;
68353;SDS011;55274;43.060;25.618;2022-08-03T06:09:15;15.52;;;5.80;;
68353;SDS011;55274;43.060;25.618;2022-08-03T06:11:42;12.10;;;4.93;;
68353;SDS011;55274;43.060;25.618;2022-08-03T06:14:07;12.35;;;3.35;;
68353;SDS011;55274;43.060;25.618;2022-08-03T06:16:33;8.40;;;3.70;;
68353;SDS011;55274;43.060;25.618;2022-08-03T06:18:59;10.98;;;3.78;;
68353;SDS011;55274;43.060;25.618;2022-08-03T06:21:25;28.13;;;5.80;;
68353;SDS011;55274;43.060;25.618;2022-08-03T06:23:51;21.13;;;4.53;;
68353;SDS011;55274;43.060;25.618;2022-08-03T06:26:17;19.73;;;4.70;;
68353;SDS011;55274;43.060;25.618;2022-08-03T06:28:43;31.88;;;5.78;;
68353;SDS011;55274;43.060;25.618;2022-08-03T06:31:10;11.27;;;4.00;;
68353;SDS011;55274;43.060;25.618;2022-08-03T06:33:36;33.90;;;5.10;;
68353;SDS011;55274;43.060;25.618;2022-08-03T06:36:01;45.83;;;6.93;;
68353;SDS011;55274;43.060;25.618;2022-08-03T06:38:27;15.15;;;2.80;;
68353;SDS011;55274;43.060;25.618;2022-08-03T06:40:53;24.63;;;2.95;;
68353;SDS011;55274;43.060;25.618;2022-08-03T06:43:19;27.13;;;2.63;;
68353;SDS011;55274;43.060;25.618;2022-08-03T06:45:45;10.68;;;2.00;;
68353;SDS011;55274;43.060;25.618;2022-08-03T06:48:11;45.63;;;3.80;;
68353;SDS011;55274;43.060;25.618;2022-08-03T06:50:38;30.25;;;2.35;;
68353;SDS011;55274;43.060;25.618;2022-08-03T06:53:06;22.83;;;1.88;;
68353;SDS011;55274;43.060;25.618;2022-08-03T06:55:35;15.15;;;1.70;;
68353;SDS011;55274;43.060;25.618;2022-08-03T06:58:01;6.85;;;1.70;;
68353;SDS011;55274;43.060;25.618;2022-08-03T07:00:27;13.60;;;1.60;;
68353;SDS011;55274;43.060;25.618;2022-08-03T07:02:53;6.55;;;1.85;;
68353;SDS011;55274;43.060;25.618;2022-08-03T07:05:19;8.70;;;1.15;;
68353;SDS011;55274;43.060;25.618;2022-08-03T07:07:45;12.23;;;1.60;;
68353;SDS011;55274;43.060;25.618;2022-08-03T07:10:11;12.38;;;1.92;;
68353;SDS011;55274;43.060;25.618;2022-08-03T07:12:37;4.32;;;1.35;;
68353;SDS011;55274;43.060;25.618;2022-08-03T07:15:04;4.07;;;1.30;;
68353;SDS011;55274;43.060;25.618;2022-08-03T07:17:33;12.82;;;1.85;;
68353;SDS011;55274;43.060;25.618;2022-08-03T07:20:00;4.05;;;1.17;;
68353;SDS011;55274;43.060;25.618;2022-08-03T07:22:27;18.63;;;1.85;;
68353;SDS011;55274;43.060;25.618;2022-08-03T07:24:53;10.90;;;1.80;;
68353;SDS011;55274;43.060;25.618;2022-08-03T07:27:19;16.08;;;2.00;;
68353;SDS011;55274;43.060;25.618;2022-08-03T07:29:45;17.30;;;2.15;;
68353;SDS011;55274;43.060;25.618;2022-08-03T07:32:11;8.07;;;1.65;;
68353;SDS011;55274;43.060;25.618;2022-08-03T07:34:36;5.75;;;1.90;;
68353;SDS011;55274;43.060;25.618;2022-08-03T07:37:02;4.18;;;1.30;;
68353;SDS011;55274;43.060;25.618;2022-08-03T07:39:28;7.53;;;1.77;;
68353;SDS011;55274;43.060;25.618;2022-08-03T07:41:54;4.82;;;1.58;;
68353;SDS011;55274;43.060;25.618;2022-08-03T07:44:20;2.90;;;1.33;;
68353;SDS011;55274;43.060;25.618;2022-08-03T07:46:46;5.88;;;1.80;;
68353;SDS011;55274;43.060;25.618;2022-08-03T07:49:12;3.70;;;1.45;;
68353;SDS011;55274;43.060;25.618;2022-08-03T07:51:38;2.72;;;1.23;;
68353;SDS011;55274;43.060;25.618;2022-08-03T07:54:04;6.22;;;1.55;;
68353;SDS011;55274;43.060;25.618;2022-08-03T07:56:30;16.30;;;3.25;;
68353;SDS011;55274;43.060;25.618;2022-08-03T07:58:56;8.43;;;1.90;;
68353;SDS011;55274;43.060;25.618;2022-08-03T08:01:22;3.60;;;1.20;;
68353;SDS011;55274;43.060;25.618;2022-08-03T08:03:48;19.95;;;2.67;;
68353;SDS011;55274;43.060;25.618;2022-08-03T08:06:14;6.20;;;1.90;;
68353;SDS011;55274;43.060;25.618;2022-08-03T08:08:42;5.57;;;1.50;;
68353;SDS011;55274;43.060;25.618;2022-08-03T08:11:07;12.15;;;1.40;;
68353;SDS011;55274;43.060;25.618;2022-08-03T08:13:33;11.90;;;1.73;;
68353;SDS011;55274;43.060;25.618;2022-08-03T08:16:01;6.95;;;1.80;;
68353;SDS011;55274;43.060;25.618;2022-08-03T08:18:27;6.10;;;1.90;;
68353;SDS011;55274;43.060;25.618;2022-08-03T08:20:56;2.45;;;1.60;;
68353;SDS011;55274;43.060;25.618;2022-08-03T08:23:22;9.43;;;2.35;;
68353;SDS011;55274;43.060;25.618;2022-08-03T08:25:51;11.80;;;1.92;;
68353;SDS011;55274;43.060;25.618;2022-08-03T08:28:19;4.10;;;1.67;;
68353;SDS011;55274;43.060;25.618;2022-08-03T08:30:46;7.15;;;1.67;;
68353;SDS011;55274;43.060;25.618;2022-08-03T08:33:12;9.80;;;2.10;;
68353;SDS011;55274;43.060;25.618;2022-08-03T08:35:38;14.15;;;2.50;;
68353;SDS011;55274;43.060;25.618;2022-08-03T08:38:04;7.10;;;1.80;;
68353;SDS011;55274;43.060;25.618;2022-08-03T08:40:30;8.05;;;1.85;;
68353;SDS011;55274;43.060;25.618;2022-08-03T08:42:56;6.68;;;1.95;;
68353;SDS011;55274;43.060;25.618;2022-08-03T08:45:22;5.53;;;1.60;;
68353;SDS011;55274;43.060;25.618;2022-08-03T08:47:49;13.43;;;2.30;;
68353;SDS011;55274;43.060;25.618;2022-08-03T08:50:20;3.78;;;1.63;;
68353;SDS011;55274;43.060;25.618;2022-08-03T08:52:47;9.35;;;1.63;;
68353;SDS011;55274;43.060;25.618;2022-08-03T08:55:17;4.30;;;1.60;;
68353;SDS011;55274;43.060;25.618;2022-08-03T08:57:50;19.05;;;2.72;;
68353;SDS011;55274;43.060;25.618;2022-08-03T09:00:19;40.50;;;3.75;;
68353;SDS011;55274;43.060;25.618;2022-08-03T09:02:45;2.72;;;1.70;;
68353;SDS011;55274;43.060;25.618;2022-08-03T09:05:12;21.40;;;2.58;;
68353;SDS011;55274;43.060;25.618;2022-08-03T09:07:39;11.27;;;2.20;;
68353;SDS011;55274;43.060;25.618;2022-08-03T09:10:06;3.22;;;1.75;;
68353;SDS011;55274;43.060;25.618;2022-08-03T09:12:43;3.03;;;1.88;;
68353;SDS011;55274;43.060;25.618;2022-08-03T09:17:55;3.53;;;1.60;;
68353;SDS011;55274;43.060;25.618;2022-08-03T09:20:22;1.95;;;1.42;;
68353;SDS011;55274;43.060;25.618;2022-08-03T09:25:36;7.13;;;1.40;;
68353;SDS011;55274;43.060;25.618;2022-08-03T09:28:04;3.63;;;1.58;;
68353;SDS011;55274;43.060;25.618;2022-08-03T09:30:30;19.45;;;2.75;;
68353;SDS011;55274;43.060;25.618;2022-08-03T09:33:00;3.72;;;1.60;;
68353;SDS011;55274;43.060;25.618;2022-08-03T09:35:27;6.75;;;2.08;;
68353;SDS011;55274;43.060;25.618;2022-08-03T09:40:50;2.28;;;1.70;;
68353;SDS011;55274;43.060;25.618;2022-08-03T09:43:17;18.50;;;2.60;;
68353;SDS011;55274;43.060;25.618;2022-08-03T09:45:44;13.57;;;2.20;;
68353;SDS011;55274;43.060;25.618;2022-08-03T09:50:54;15.57;;;2.25;;
68353;SDS011;55274;43.060;25.618;2022-08-03T09:53:22;49.53;;;4.85;;
68353;SDS011;55274;43.060;25.618;2022-08-03T09:55:52;11.02;;;2.75;;
68353;SDS011;55274;43.060;25.618;2022-08-03T09:58:23;23.75;;;3.35;;
68353;SDS011;55274;43.060;25.618;2022-08-03T10:01:00;16.35;;;2.38;;
68353;SDS011;55274;43.060;25.618;2022-08-03T10:03:31;16.70;;;1.95;;
68353;SDS011;55274;43.060;25.618;2022-08-03T10:09:05;10.25;;;1.40;;
68353;SDS011;55274;43.060;25.618;2022-08-03T10:11:36;13.55;;;1.80;;
68353;SDS011;55274;43.060;25.618;2022-08-03T10:14:03;8.57;;;1.70;;
68353;SDS011;55274;43.060;25.618;2022-08-03T10:16:39;6.55;;;1.73;;
68353;SDS011;55274;43.060;25.618;2022-08-03T10:19:06;3.17;;;1.52;;
68353;SDS011;55274;43.060;25.618;2022-08-03T10:21:34;3.78;;;1.33;;
68353;SDS011;55274;43.060;25.618;2022-08-03T10:24:03;1.80;;;1.50;;
68353;SDS011;55274;43.060;25.618;2022-08-03T10:26:37;10.75;;;2.50;;
68353;SDS011;55274;43.060;25.618;2022-08-03T10:29:05;19.33;;;2.10;;
68353;SDS011;55274;43.060;25.618;2022-08-03T10:31:40;5.20;;;1.70;;
68353;SDS011;55274;43.060;25.618;2022-08-03T10:34:14;14.40;;;2.28;;
68353;SDS011;55274;43.060;25.618;2022-08-03T10:36:46;11.02;;;1.90;;
68353;SDS011;55274;43.060;25.618;2022-08-03T10:39:14;2.53;;;1.23;;
68353;SDS011;55274;43.060;25.618;2022-08-03T10:41:43;17.23;;;2.40;;
68353;SDS011;55274;43.060;25.618;2022-08-03T10:44:17;3.58;;;1.40;;
68353;SDS011;55274;43.060;25.618;2022-08-03T10:46:45;10.95;;;1.65;;
68353;SDS011;55274;43.060;25.618;2022-08-03T10:49:17;6.80;;;1.63;;
68353;SDS011;55274;43.060;25.618;2022-08-03T10:51:44;4.25;;;1.50;;
68353;SDS011;55274;43.060;25.618;2022-08-03T10:57:01;28.35;;;3.28;;
68353;SDS011;55274;43.060;25.618;2022-08-03T11:02:13;7.43;;;1.45;;
68353;SDS011;55274;43.060;25.618;2022-08-03T11:04:39;35.92;;;3.28;;
68353;SDS011;55274;43.060;25.618;2022-08-03T11:09:46;5.75;;;1.10;;
68353;SDS011;55274;43.060;25.618;2022-08-03T11:12:24;7.60;;;1.55;;
68353;SDS011;55274;43.060;25.618;2022-08-03T11:14:51;5.57;;;1.33;;
68353;SDS011;55274;43.060;25.618;2022-08-03T11:17:18;14.35;;;2.03;;
68353;SDS011;55274;43.060;25.618;2022-08-03T11:19:48;14.77;;;2.00;;
68353;SDS011;55274;43.060;25.618;2022-08-03T11:22:15;3.90;;;1.40;;
68353;SDS011;55274;43.060;25.618;2022-08-03T11:35:16;6.40;;;1.52;;
68353;SDS011;55274;43.060;25.618;2022-08-03T11:45:58;6.45;;;1.98;;
68353;SDS011;55274;43.060;25.618;2022-08-03T11:53:52;3.78;;;1.77;;
68353;SDS011;55274;43.060;25.618;2022-08-03T11:56:18;8.45;;;2.20;;
68353;SDS011;55274;43.060;25.618;2022-08-03T11:58:48;1.67;;;1.27;;
68353;SDS011;55274;43.060;25.618;2022-08-03T12:01:17;5.57;;;1.60;;
68353;SDS011;55274;43.060;25.618;2022-08-03T12:03:44;3.05;;;1.13;;
68353;SDS011;55274;43.060;25.618;2022-08-03T12:06:10;3.67;;;1.10;;
68353;SDS011;55274;43.060;25.618;2022-08-03T12:08:38;6.55;;;1.60;;
68353;SDS011;55274;43.060;25.618;2022-08-03T12:11:07;2.97;;;1.50;;
68353;SDS011;55274;43.060;25.618;2022-08-03T12:13:44;1.95;;;1.13;;
68353;SDS011;55274;43.060;25.618;2022-08-03T12:16:22;2.97;;;1.20;;
68353;SDS011;55274;43.060;25.618;2022-08-03T12:18:59;21.30;;;2.78;;
68353;SDS011;55274;43.060;25.618;2022-08-03T12:21:26;1.50;;;1.40;;
68353;SDS011;55274;43.060;25.618;2022-08-03T12:23:56;3.58;;;1.40;;
68353;SDS011;55274;43.060;25.618;2022-08-03T12:26:24;2.40;;;1.10;;
68353;SDS011;55274;43.060;25.618;2022-08-03T12:28:50;2.55;;;1.30;;
68353;SDS011;55274;43.060;25.618;2022-08-03T12:31:16;4.15;;;1.45;;
68353;SDS011;55274;43.060;25.618;2022-08-03T12:36:31;7.68;;;1.55;;
68353;SDS011;55274;43.060;25.618;2022-08-03T12:38:59;5.68;;;1.48;;
68353;SDS011;55274;43.060;25.618;2022-08-03T12:41:30;3.13;;;1.20;;
68353;SDS011;55274;43.060;25.618;2022-08-03T12:43:57;3.58;;;1.52;;
68353;SDS011;55274;43.060;25.618;2022-08-03T12:46:28;13.25;;;1.90;;
68353;SDS011;55274;43.060;25.618;2022-08-03T12:48:59;5.80;;;1.40;;
68353;SDS011;55274;43.060;25.618;2022-08-03T12:51:34;2.10;;;1.30;;
68353;SDS011;55274;43.060;25.618;2022-08-03T12:54:06;20.67;;;2.08;;
68353;SDS011;55274;43.060;25.618;2022-08-03T12:56:33;2.10;;;1.40;;
68353;SDS011;55274;43.060;25.618;2022-08-03T12:58:59;4.25;;;1.20;;
68353;SDS011;55274;43.060;25.618;2022-08-03T13:01:45;2.78;;;1.10;;
68353;SDS011;55274;43.060;25.618;2022-08-03T13:04:11;8.40;;;1.73;;
68353;SDS011;55274;43.060;25.618;2022-08-03T13:06:37;21.30;;;2.00;;
68353;SDS011;55274;43.060;25.618;2022-08-03T13:09:04;2.75;;;1.13;;
68353;SDS011;55274;43.060;25.618;2022-08-03T13:11:30;2.40;;;1.17;;
68353;SDS011;55274;43.060;25.618;2022-08-03T13:13:57;1.63;;;1.20;;
68353;SDS011;55274;43.060;25.618;2022-08-03T13:16:23;3.13;;;1.38;;
68353;SDS011;55274;43.060;25.618;2022-08-03T13:18:50;9.02;;;1.70;;
68353;SDS011;55274;43.060;25.618;2022-08-03T13:21:18;12.10;;;1.38;;
68353;SDS011;55274;43.060;25.618;2022-08-03T13:23:45;64.57;;;4.95;;
68353;SDS011;55274;43.060;25.618;2022-08-03T13:26:11;12.27;;;1.63;;
68353;SDS011;55274;43.060;25.618;2022-08-03T13:28:38;13.32;;;1.75;;
68353;SDS011;55274;43.060;25.618;2022-08-03T13:31:04;23.08;;;2.33;;
68353;SDS011;55274;43.060;25.618;2022-08-03T13:33:31;16.25;;;2.08;;
68353;SDS011;55274;43.060;25.618;2022-08-03T13:35:56;4.25;;;1.52;;
68353;SDS011;55274;43.060;25.618;2022-08-03T13:38:23;10.57;;;1.70;;
68353;SDS011;55274;43.060;25.618;2022-08-03T13:40:50;11.98;;;1.60;;
68353;SDS011;55274;43.060;25.618;2022-08-03T13:43:17;23.15;;;2.47;;
68353;SDS011;55274;43.060;25.618;2022-08-03T13:45:43;21.02;;;2.42;;
68353;SDS011;55274;43.060;25.618;2022-08-03T13:48:09;9.98;;;2.20;;
68353;SDS011;55274;43.060;25.618;2022-08-03T13:50:35;24.17;;;2.85;;
68353;SDS011;55274;43.060;25.618;2022-08-03T13:53:01;12.77;;;1.77;;
68353;SDS011;55274;43.060;25.618;2022-08-03T13:55:27;8.02;;;1.60;;
68353;SDS011;55274;43.060;25.618;2022-08-03T13:57:52;11.90;;;2.22;;
68353;SDS011;55274;43.060;25.618;2022-08-03T14:00:18;1.70;;;1.10;;
68353;SDS011;55274;43.060;25.618;2022-08-03T14:02:48;2.88;;;1.25;;
68353;SDS011;55274;43.060;25.618;2022-08-03T14:05:14;2.72;;;1.50;;
68353;SDS011;55274;43.060;25.618;2022-08-03T14:07:40;18.40;;;2.42;;
68353;SDS011;55274;43.060;25.618;2022-08-03T14:10:05;18.33;;;2.00;;
68353;SDS011;55274;43.060;25.618;2022-08-03T14:12:32;4.93;;;1.52;;
68353;SDS011;55274;43.060;25.618;2022-08-03T14:14:58;14.13;;;2.00;;
68353;SDS011;55274;43.060;25.618;2022-08-03T14:17:23;3.00;;;1.25;;
68353;SDS011;55274;43.060;25.618;2022-08-03T14:19:49;12.38;;;2.33;;
68353;SDS011;55274;43.060;25.618;2022-08-03T14:22:15;16.60;;;2.58;;
68353;SDS011;55274;43.060;25.618;2022-08-03T14:24:41;8.38;;;1.83;;
68353;SDS011;55274;43.060;25.618;2022-08-03T14:27:06;4.57;;;1.65;;
68353;SDS011;55274;43.060;25.618;2022-08-03T14:29:32;7.35;;;1.70;;
68353;SDS011;55274;43.060;25.618;2022-08-03T14:31:58;2.25;;;1.30;;
68353;SDS011;55274;43.060;25.618;2022-08-03T14:34:24;7.65;;;2.00;;
68353;SDS011;55274;43.060;25.618;2022-08-03T14:36:49;2.78;;;1.48;;
68353;SDS011;55274;43.060;25.618;2022-08-03T14:39:15;4.40;;;1.65;;
68353;SDS011;55274;43.060;25.618;2022-08-03T14:41:41;37.08;;;3.95;;
68353;SDS011;55274;43.060;25.618;2022-08-03T14:44:07;15.98;;;2.35;;
68353;SDS011;55274;43.060;25.618;2022-08-03T14:46:32;19.75;;;1.75;;
68353;SDS011;55274;43.060;25.618;2022-08-03T14:48:58;20.33;;;2.30;;
68353;SDS011;55274;43.060;25.618;2022-08-03T14:51:24;12.60;;;2.30;;
68353;SDS011;55274;43.060;25.618;2022-08-03T14:53:50;2.30;;;1.40;;
68353;SDS011;55274;43.060;25.618;2022-08-03T14:56:17;2.92;;;1.65;;
68353;SDS011;55274;43.060;25.618;2022-08-03T14:58:42;15.70;;;2.38;;
68353;SDS011;55274;43.060;25.618;2022-08-03T15:01:08;12.95;;;1.67;;
68353;SDS011;55274;43.060;25.618;2022-08-03T15:03:34;9.18;;;1.85;;
68353;SDS011;55274;43.060;25.618;2022-08-03T15:06:00;32.47;;;2.67;;
68353;SDS011;55274;43.060;25.618;2022-08-03T15:08:26;6.90;;;1.30;;
68353;SDS011;55274;43.060;25.618;2022-08-03T15:10:52;2.85;;;1.08;;
68353;SDS011;55274;43.060;25.618;2022-08-03T15:13:18;8.48;;;1.42;;
68353;SDS011;55274;43.060;25.618;2022-08-03T15:15:46;2.72;;;1.23;;
68353;SDS011;55274;43.060;25.618;2022-08-03T15:18:12;5.32;;;1.42;;
68353;SDS011;55274;43.060;25.618;2022-08-03T15:20:38;1.67;;;1.10;;
68353;SDS011;55274;43.060;25.618;2022-08-03T15:23:04;1.70;;;0.95;;
68353;SDS011;55274;43.060;25.618;2022-08-03T15:25:29;2.35;;;1.00;;
68353;SDS011;55274;43.060;25.618;2022-08-03T15:27:55;3.35;;;1.00;;
68353;SDS011;55274;43.060;25.618;2022-08-03T15:30:21;3.58;;;1.05;;
68353;SDS011;55274;43.060;25.618;2022-08-03T15:32:47;6.25;;;1.85;;
68353;SDS011;55274;43.060;25.618;2022-08-03T15:35:12;10.18;;;2.00;;